sensor_id;sensor_type;location;lat;lon;timestamp;temperature;humidity
12434;DHT22;6281;49.038;8.372;2024-01-07T00:00:06;5.00;99.90
12434;DHT22;6281;49.038;8.372;2024-01-07T00:02:33;5.10;99.90
12434;DHT22;6281;49.038;8.372;2024-01-07T00:05:00;4.90;99.90
12434;DHT22;6281;49.038;8.372;2024-01-07T00:07:27;4.90;99.90
12434;DHT22;6281;49.038;8.372;2024-01-07T00:09:56;4.80;99.90
12434;DHT22;6281;49.038;8.372;2024-01-07T00:12:23;5.10;99.90
12434;DHT22;6281;49.038;8.372;2024-01-07T00:14:50;4.90;99.90
12434;DHT22;6281;49.038;8.372;2024-01-07T00:17:17;5.00;99.90
12434;DHT22;6281;49.038;8.372;2024-01-07T00:19:44;4.90;99.90
12434;DHT22;6281;49.038;8.372;2024-01-07T00:22:11;5.00;99.90
12434;DHT22;6281;49.038;8.372;2024-01-07T00:24:38;5.00;99.90
12434;DHT22;6281;49.038;8.372;2024-01-07T00:27:06;4.80;99.90
12434;DHT22;6281;49.038;8.372;2024-01-07T00:29:34;4.90;99.90
12434;DHT22;6281;49.038;8.372;2024-01-07T00:32:01;4.80;99.90
12434;DHT22;6281;49.038;8.372;2024-01-07T00:34:28;4.90;99.90
12434;DHT22;6281;49.038;8.372;2024-01-07T00:36:55;4.90;99.90
12434;DHT22;6281;49.038;8.372;2024-01-07T00:39:22;4.90;99.90
12434;DHT22;6281;49.038;8.372;2024-01-07T00:41:49;4.80;99.90
12434;DHT22;6281;49.038;8.372;2024-01-07T00:44:18;4.70;99.90
12434;DHT22;6281;49.038;8.372;2024-01-07T00:46:45;4.90;99.90
12434;DHT22;6281;49.038;8.372;2024-01-07T00:49:12;4.80;99.90
12434;DHT22;6281;49.038;8.372;2024-01-07T00:51:39;4.90;99.90
12434;DHT22;6281;49.038;8.372;2024-01-07T00:54:06;4.80;99.90
12434;DHT22;6281;49.038;8.372;2024-01-07T00:56:33;4.80;99.90
12434;DHT22;6281;49.038;8.372;2024-01-07T00:58:59;4.70;99.90
12434;DHT22;6281;49.038;8.372;2024-01-07T01:01:28;4.70;99.90
12434;DHT22;6281;49.038;8.372;2024-01-07T01:03:55;4.80;99.90
12434;DHT22;6281;49.038;8.372;2024-01-07T01:06:23;4.70;99.90
12434;DHT22;6281;49.038;8.372;2024-01-07T01:08:50;4.70;99.90
12434;DHT22;6281;49.038;8.372;2024-01-07T01:11:17;4.70;99.90
12434;DHT22;6281;49.038;8.372;2024-01-07T01:13:44;4.70;99.90
12434;DHT22;6281;49.038;8.372;2024-01-07T01:16:11;4.80;99.90
12434;DHT22;6281;49.038;8.372;2024-01-07T01:18:39;4.70;99.90
12434;DHT22;6281;49.038;8.372;2024-01-07T01:21:06;4.80;99.90
12434;DHT22;6281;49.038;8.372;2024-01-07T01:23:33;4.70;99.90
12434;DHT22;6281;49.038;8.372;2024-01-07T01:26:00;4.70;99.90
12434;DHT22;6281;49.038;8.372;2024-01-07T01:28:27;4.80;99.90
12434;DHT22;6281;49.038;8.372;2024-01-07T01:30:54;4.80;99.90
12434;DHT22;6281;49.038;8.372;2024-01-07T01:33:21;4.70;99.90
12434;DHT22;6281;49.038;8.372;2024-01-07T01:35:49;4.70;99.90
12434;DHT22;6281;49.038;8.372;2024-01-07T01:38:16;4.70;99.90
12434;DHT22;6281;49.038;8.372;2024-01-07T01:40:43;4.60;99.90
12434;DHT22;6281;49.038;8.372;2024-01-07T01:43:10;4.60;99.90
12434;DHT22;6281;49.038;8.372;2024-01-07T01:45:38;4.70;99.90
12434;DHT22;6281;49.038;8.372;2024-01-07T01:48:05;4.70;99.90
12434;DHT22;6281;49.038;8.372;2024-01-07T01:50:32;4.60;99.90
12434;DHT22;6281;49.038;8.372;2024-01-07T01:53:01;4.60;99.90
12434;DHT22;6281;49.038;8.372;2024-01-07T01:55:28;4.60;99.90
12434;DHT22;6281;49.038;8.372;2024-01-07T01:57:55;4.60;99.90
12434;DHT22;6281;49.038;8.372;2024-01-07T02:00:25;4.70;99.90
12434;DHT22;6281;49.038;8.372;2024-01-07T02:02:52;4.60;99.90
12434;DHT22;6281;49.038;8.372;2024-01-07T02:05:19;4.70;99.90
12434;DHT22;6281;49.038;8.372;2024-01-07T02:07:46;4.70;99.90
12434;DHT22;6281;49.038;8.372;2024-01-07T02:10:15;4.70;99.90
12434;DHT22;6281;49.038;8.372;2024-01-07T02:12:42;4.90;99.90
12434;DHT22;6281;49.038;8.372;2024-01-07T02:15:09;4.80;99.90
12434;DHT22;6281;49.038;8.372;2024-01-07T02:17:36;4.80;99.90
12434;DHT22;6281;49.038;8.372;2024-01-07T02:20:03;4.90;99.90
12434;DHT22;6281;49.038;8.372;2024-01-07T02:22:30;4.80;99.90
12434;DHT22;6281;49.038;8.372;2024-01-07T02:24:58;4.90;99.90
12434;DHT22;6281;49.038;8.372;2024-01-07T02:27:25;4.90;99.90
12434;DHT22;6281;49.038;8.372;2024-01-07T02:29:52;4.60;99.90
12434;DHT22;6281;49.038;8.372;2024-01-07T02:32:19;4.70;99.90
12434;DHT22;6281;49.038;8.372;2024-01-07T02:34:46;4.70;99.90
12434;DHT22;6281;49.038;8.372;2024-01-07T02:37:13;4.60;99.90
12434;DHT22;6281;49.038;8.372;2024-01-07T02:39:40;4.80;99.90
12434;DHT22;6281;49.038;8.372;2024-01-07T02:42:09;4.80;99.90
12434;DHT22;6281;49.038;8.372;2024-01-07T02:44:36;4.70;99.90
12434;DHT22;6281;49.038;8.372;2024-01-07T02:47:04;4.70;99.90
12434;DHT22;6281;49.038;8.372;2024-01-07T02:49:30;4.50;99.90
12434;DHT22;6281;49.038;8.372;2024-01-07T02:51:57;4.60;99.90
12434;DHT22;6281;49.038;8.372;2024-01-07T02:54:24;4.60;99.90
12434;DHT22;6281;49.038;8.372;2024-01-07T02:56:51;4.70;99.90
12434;DHT22;6281;49.038;8.372;2024-01-07T02:59:20;4.60;99.90
12434;DHT22;6281;49.038;8.372;2024-01-07T03:01:46;4.60;99.90
12434;DHT22;6281;49.038;8.372;2024-01-07T03:04:15;4.80;99.90
12434;DHT22;6281;49.038;8.372;2024-01-07T03:06:42;4.80;99.90
12434;DHT22;6281;49.038;8.372;2024-01-07T03:09:09;4.70;99.90
12434;DHT22;6281;49.038;8.372;2024-01-07T03:11:39;4.70;99.90
12434;DHT22;6281;49.038;8.372;2024-01-07T03:14:06;4.60;99.90
12434;DHT22;6281;49.038;8.372;2024-01-07T03:16:35;4.60;99.90
12434;DHT22;6281;49.038;8.372;2024-01-07T03:19:02;4.70;99.90
12434;DHT22;6281;49.038;8.372;2024-01-07T03:21:30;4.70;99.90
12434;DHT22;6281;49.038;8.372;2024-01-07T03:23:57;4.60;99.90
12434;DHT22;6281;49.038;8.372;2024-01-07T03:26:24;4.60;99.90
12434;DHT22;6281;49.038;8.372;2024-01-07T03:28:55;4.50;99.90
12434;DHT22;6281;49.038;8.372;2024-01-07T03:31:25;4.70;99.90
12434;DHT22;6281;49.038;8.372;2024-01-07T03:33:53;4.70;99.90
12434;DHT22;6281;49.038;8.372;2024-01-07T03:36:20;4.50;99.90
12434;DHT22;6281;49.038;8.372;2024-01-07T03:38:48;4.70;99.90
12434;DHT22;6281;49.038;8.372;2024-01-07T03:41:16;4.60;99.90
12434;DHT22;6281;49.038;8.372;2024-01-07T03:43:43;4.60;99.90
12434;DHT22;6281;49.038;8.372;2024-01-07T03:46:10;4.40;99.90
12434;DHT22;6281;49.038;8.372;2024-01-07T03:48:37;4.50;99.90
12434;DHT22;6281;49.038;8.372;2024-01-07T03:51:06;4.50;99.90
12434;DHT22;6281;49.038;8.372;2024-01-07T03:53:33;4.60;99.90
12434;DHT22;6281;49.038;8.372;2024-01-07T03:55:59;4.60;99.90
12434;DHT22;6281;49.038;8.372;2024-01-07T03:58:26;4.50;99.90
12434;DHT22;6281;49.038;8.372;2024-01-07T04:00:53;4.60;99.90
12434;DHT22;6281;49.038;8.372;2024-01-07T04:03:20;4.50;99.90
12434;DHT22;6281;49.038;8.372;2024-01-07T04:05:47;4.50;99.90
12434;DHT22;6281;49.038;8.372;2024-01-07T04:08:15;4.50;99.90
12434;DHT22;6281;49.038;8.372;2024-01-07T04:10:42;4.40;99.90
12434;DHT22;6281;49.038;8.372;2024-01-07T04:13:09;4.70;99.90
12434;DHT22;6281;49.038;8.372;2024-01-07T04:15:36;4.60;99.90
12434;DHT22;6281;49.038;8.372;2024-01-07T04:18:03;4.40;99.90
12434;DHT22;6281;49.038;8.372;2024-01-07T04:20:30;4.60;99.90
12434;DHT22;6281;49.038;8.372;2024-01-07T04:22:57;4.50;99.90
12434;DHT22;6281;49.038;8.372;2024-01-07T04:25:25;4.70;99.90
12434;DHT22;6281;49.038;8.372;2024-01-07T04:27:52;4.60;99.90
12434;DHT22;6281;49.038;8.372;2024-01-07T04:30:19;4.40;99.90
12434;DHT22;6281;49.038;8.372;2024-01-07T04:32:46;4.30;99.90
12434;DHT22;6281;49.038;8.372;2024-01-07T04:35:12;4.50;99.90
12434;DHT22;6281;49.038;8.372;2024-01-07T04:37:39;4.70;99.90
12434;DHT22;6281;49.038;8.372;2024-01-07T04:40:07;4.50;99.90
12434;DHT22;6281;49.038;8.372;2024-01-07T04:42:35;4.60;99.90
12434;DHT22;6281;49.038;8.372;2024-01-07T04:45:02;4.40;99.90
12434;DHT22;6281;49.038;8.372;2024-01-07T04:47:30;4.40;99.90
12434;DHT22;6281;49.038;8.372;2024-01-07T04:49:57;4.60;99.90
12434;DHT22;6281;49.038;8.372;2024-01-07T04:52:24;4.40;99.90
12434;DHT22;6281;49.038;8.372;2024-01-07T04:54:52;4.50;99.90
12434;DHT22;6281;49.038;8.372;2024-01-07T04:57:19;4.30;99.90
12434;DHT22;6281;49.038;8.372;2024-01-07T04:59:47;4.50;99.90
12434;DHT22;6281;49.038;8.372;2024-01-07T05:02:14;4.50;99.90
12434;DHT22;6281;49.038;8.372;2024-01-07T05:04:42;4.80;99.90
12434;DHT22;6281;49.038;8.372;2024-01-07T05:07:08;4.70;99.90
12434;DHT22;6281;49.038;8.372;2024-01-07T05:09:35;4.70;99.90
12434;DHT22;6281;49.038;8.372;2024-01-07T05:12:02;4.60;99.90
12434;DHT22;6281;49.038;8.372;2024-01-07T05:14:29;4.60;99.90
12434;DHT22;6281;49.038;8.372;2024-01-07T05:16:57;4.50;99.90
12434;DHT22;6281;49.038;8.372;2024-01-07T05:19:24;4.30;99.90
12434;DHT22;6281;49.038;8.372;2024-01-07T05:21:51;4.40;99.90
12434;DHT22;6281;49.038;8.372;2024-01-07T05:24:18;4.40;99.90
12434;DHT22;6281;49.038;8.372;2024-01-07T05:26:44;4.30;99.90
12434;DHT22;6281;49.038;8.372;2024-01-07T05:29:11;4.40;99.90
12434;DHT22;6281;49.038;8.372;2024-01-07T05:31:39;4.60;99.90
12434;DHT22;6281;49.038;8.372;2024-01-07T05:34:07;4.50;99.90
12434;DHT22;6281;49.038;8.372;2024-01-07T05:36:34;4.50;99.90
12434;DHT22;6281;49.038;8.372;2024-01-07T05:39:01;4.70;99.90
12434;DHT22;6281;49.038;8.372;2024-01-07T05:41:28;4.60;99.90
12434;DHT22;6281;49.038;8.372;2024-01-07T05:43:55;4.50;99.90
12434;DHT22;6281;49.038;8.372;2024-01-07T05:46:21;4.60;99.90
12434;DHT22;6281;49.038;8.372;2024-01-07T05:48:48;4.50;99.90
12434;DHT22;6281;49.038;8.372;2024-01-07T05:51:17;4.50;99.90
12434;DHT22;6281;49.038;8.372;2024-01-07T05:53:44;4.70;99.90
12434;DHT22;6281;49.038;8.372;2024-01-07T05:56:11;4.50;99.90
12434;DHT22;6281;49.038;8.372;2024-01-07T05:58:38;4.40;99.90
12434;DHT22;6281;49.038;8.372;2024-01-07T06:01:06;4.50;99.90
12434;DHT22;6281;49.038;8.372;2024-01-07T06:03:33;4.60;99.90
12434;DHT22;6281;49.038;8.372;2024-01-07T06:06:00;4.70;99.90
12434;DHT22;6281;49.038;8.372;2024-01-07T06:08:29;4.60;99.90
12434;DHT22;6281;49.038;8.372;2024-01-07T06:10:55;4.60;99.90
12434;DHT22;6281;49.038;8.372;2024-01-07T06:13:22;4.40;99.90
12434;DHT22;6281;49.038;8.372;2024-01-07T06:15:49;4.50;99.90
12434;DHT22;6281;49.038;8.372;2024-01-07T06:18:16;4.60;99.90
12434;DHT22;6281;49.038;8.372;2024-01-07T06:20:43;4.60;99.90
12434;DHT22;6281;49.038;8.372;2024-01-07T06:23:10;4.50;99.90
12434;DHT22;6281;49.038;8.372;2024-01-07T06:25:38;4.60;99.90
12434;DHT22;6281;49.038;8.372;2024-01-07T06:28:06;4.80;99.90
12434;DHT22;6281;49.038;8.372;2024-01-07T06:30:33;4.50;99.90
12434;DHT22;6281;49.038;8.372;2024-01-07T06:33:00;4.70;99.90
12434;DHT22;6281;49.038;8.372;2024-01-07T06:35:27;4.80;99.90
12434;DHT22;6281;49.038;8.372;2024-01-07T06:37:54;4.70;99.90
12434;DHT22;6281;49.038;8.372;2024-01-07T06:40:21;4.50;99.90
12434;DHT22;6281;49.038;8.372;2024-01-07T06:42:49;4.50;99.90
12434;DHT22;6281;49.038;8.372;2024-01-07T06:45:17;4.50;99.90
12434;DHT22;6281;49.038;8.372;2024-01-07T06:47:44;4.50;99.90
12434;DHT22;6281;49.038;8.372;2024-01-07T06:50:11;4.50;99.90
12434;DHT22;6281;49.038;8.372;2024-01-07T06:52:38;4.50;99.90
12434;DHT22;6281;49.038;8.372;2024-01-07T06:55:07;4.50;99.90
12434;DHT22;6281;49.038;8.372;2024-01-07T06:57:34;4.60;99.90
12434;DHT22;6281;49.038;8.372;2024-01-07T07:00:03;4.50;99.90
12434;DHT22;6281;49.038;8.372;2024-01-07T07:02:30;4.50;99.90
12434;DHT22;6281;49.038;8.372;2024-01-07T07:04:57;4.50;99.90
12434;DHT22;6281;49.038;8.372;2024-01-07T07:07:24;4.60;99.90
12434;DHT22;6281;49.038;8.372;2024-01-07T07:09:51;4.50;99.90
12434;DHT22;6281;49.038;8.372;2024-01-07T07:12:18;4.40;99.90
12434;DHT22;6281;49.038;8.372;2024-01-07T07:14:45;4.50;99.90
12434;DHT22;6281;49.038;8.372;2024-01-07T07:17:14;4.70;99.90
12434;DHT22;6281;49.038;8.372;2024-01-07T07:19:42;4.60;99.90
12434;DHT22;6281;49.038;8.372;2024-01-07T07:22:09;4.50;99.90
12434;DHT22;6281;49.038;8.372;2024-01-07T07:24:40;4.60;99.90
12434;DHT22;6281;49.038;8.372;2024-01-07T07:27:07;4.60;99.90
12434;DHT22;6281;49.038;8.372;2024-01-07T07:29:33;4.50;99.90
12434;DHT22;6281;49.038;8.372;2024-01-07T07:32:00;4.70;99.90
12434;DHT22;6281;49.038;8.372;2024-01-07T07:34:29;4.60;99.90
12434;DHT22;6281;49.038;8.372;2024-01-07T07:36:56;4.70;99.90
12434;DHT22;6281;49.038;8.372;2024-01-07T07:39:23;4.90;99.90
12434;DHT22;6281;49.038;8.372;2024-01-07T07:41:50;4.60;99.90
12434;DHT22;6281;49.038;8.372;2024-01-07T07:44:16;4.70;99.90
12434;DHT22;6281;49.038;8.372;2024-01-07T07:46:43;4.50;99.90
12434;DHT22;6281;49.038;8.372;2024-01-07T07:49:10;4.50;99.90
12434;DHT22;6281;49.038;8.372;2024-01-07T07:51:39;4.70;99.90
12434;DHT22;6281;49.038;8.372;2024-01-07T07:54:06;4.80;99.90
12434;DHT22;6281;49.038;8.372;2024-01-07T07:56:33;4.80;99.90
12434;DHT22;6281;49.038;8.372;2024-01-07T07:59:01;4.60;99.90
12434;DHT22;6281;49.038;8.372;2024-01-07T08:01:28;4.70;99.90
12434;DHT22;6281;49.038;8.372;2024-01-07T08:03:55;4.70;99.90
12434;DHT22;6281;49.038;8.372;2024-01-07T08:06:22;4.70;99.90
12434;DHT22;6281;49.038;8.372;2024-01-07T08:08:50;4.70;99.90
12434;DHT22;6281;49.038;8.372;2024-01-07T08:11:17;4.70;99.90
12434;DHT22;6281;49.038;8.372;2024-01-07T08:13:44;4.60;99.90
12434;DHT22;6281;49.038;8.372;2024-01-07T08:16:11;4.80;99.90
12434;DHT22;6281;49.038;8.372;2024-01-07T08:18:38;4.80;99.90
12434;DHT22;6281;49.038;8.372;2024-01-07T08:21:05;4.80;99.90
12434;DHT22;6281;49.038;8.372;2024-01-07T08:23:31;4.80;99.90
12434;DHT22;6281;49.038;8.372;2024-01-07T08:26:00;4.70;99.90
12434;DHT22;6281;49.038;8.372;2024-01-07T08:28:27;4.70;99.90
12434;DHT22;6281;49.038;8.372;2024-01-07T08:30:54;4.80;99.90
12434;DHT22;6281;49.038;8.372;2024-01-07T08:33:21;4.70;99.90
12434;DHT22;6281;49.038;8.372;2024-01-07T08:35:48;4.70;99.90
12434;DHT22;6281;49.038;8.372;2024-01-07T08:38:15;4.70;99.90
12434;DHT22;6281;49.038;8.372;2024-01-07T08:40:42;4.80;99.90
12434;DHT22;6281;49.038;8.372;2024-01-07T08:43:10;5.00;99.90
12434;DHT22;6281;49.038;8.372;2024-01-07T08:45:37;4.90;99.90
12434;DHT22;6281;49.038;8.372;2024-01-07T08:48:05;4.70;99.90
12434;DHT22;6281;49.038;8.372;2024-01-07T08:50:32;4.80;99.90
12434;DHT22;6281;49.038;8.372;2024-01-07T08:52:59;4.80;99.90
12434;DHT22;6281;49.038;8.372;2024-01-07T08:55:26;5.00;99.90
12434;DHT22;6281;49.038;8.372;2024-01-07T08:57:53;4.90;99.90
12434;DHT22;6281;49.038;8.372;2024-01-07T09:00:21;5.10;99.90
12434;DHT22;6281;49.038;8.372;2024-01-07T09:02:51;5.10;99.90
12434;DHT22;6281;49.038;8.372;2024-01-07T09:05:18;5.20;99.90
12434;DHT22;6281;49.038;8.372;2024-01-07T09:07:45;5.10;99.90
12434;DHT22;6281;49.038;8.372;2024-01-07T09:10:12;5.00;99.90
12434;DHT22;6281;49.038;8.372;2024-01-07T09:12:39;5.10;99.90
12434;DHT22;6281;49.038;8.372;2024-01-07T09:15:07;5.20;99.90
12434;DHT22;6281;49.038;8.372;2024-01-07T09:17:36;5.30;99.90
12434;DHT22;6281;49.038;8.372;2024-01-07T09:20:04;5.30;99.90
12434;DHT22;6281;49.038;8.372;2024-01-07T09:22:33;5.40;99.90
12434;DHT22;6281;49.038;8.372;2024-01-07T09:25:01;5.10;99.90
12434;DHT22;6281;49.038;8.372;2024-01-07T09:27:28;5.10;99.90
12434;DHT22;6281;49.038;8.372;2024-01-07T09:29:55;5.10;99.90
12434;DHT22;6281;49.038;8.372;2024-01-07T09:32:22;5.00;99.90
12434;DHT22;6281;49.038;8.372;2024-01-07T09:34:51;5.10;99.90
12434;DHT22;6281;49.038;8.372;2024-01-07T09:37:19;5.20;99.90
12434;DHT22;6281;49.038;8.372;2024-01-07T09:39:46;5.00;99.90
12434;DHT22;6281;49.038;8.372;2024-01-07T09:42:14;5.10;99.90
12434;DHT22;6281;49.038;8.372;2024-01-07T09:44:42;5.00;99.90
12434;DHT22;6281;49.038;8.372;2024-01-07T09:47:11;5.20;99.90
12434;DHT22;6281;49.038;8.372;2024-01-07T09:49:39;5.50;99.90
12434;DHT22;6281;49.038;8.372;2024-01-07T09:52:08;5.60;99.90
12434;DHT22;6281;49.038;8.372;2024-01-07T09:54:36;5.40;99.90
12434;DHT22;6281;49.038;8.372;2024-01-07T09:57:05;5.40;99.90
12434;DHT22;6281;49.038;8.372;2024-01-07T09:59:34;5.40;99.90
12434;DHT22;6281;49.038;8.372;2024-01-07T10:02:02;5.40;99.90
12434;DHT22;6281;49.038;8.372;2024-01-07T10:04:29;5.40;99.90
12434;DHT22;6281;49.038;8.372;2024-01-07T10:06:57;5.40;99.90
12434;DHT22;6281;49.038;8.372;2024-01-07T10:09:29;5.50;99.90
12434;DHT22;6281;49.038;8.372;2024-01-07T10:11:57;5.50;99.90
12434;DHT22;6281;49.038;8.372;2024-01-07T10:14:23;5.90;99.90
12434;DHT22;6281;49.038;8.372;2024-01-07T10:16:51;5.70;99.90
12434;DHT22;6281;49.038;8.372;2024-01-07T10:19:20;5.90;99.90
12434;DHT22;6281;49.038;8.372;2024-01-07T10:21:58;6.00;99.90
12434;DHT22;6281;49.038;8.372;2024-01-07T10:24:34;5.90;99.90
12434;DHT22;6281;49.038;8.372;2024-01-07T10:27:03;6.00;99.90
12434;DHT22;6281;49.038;8.372;2024-01-07T10:29:30;6.00;99.90
12434;DHT22;6281;49.038;8.372;2024-01-07T10:31:57;6.00;99.90
12434;DHT22;6281;49.038;8.372;2024-01-07T10:34:25;6.00;99.90
12434;DHT22;6281;49.038;8.372;2024-01-07T10:36:54;6.00;99.90
12434;DHT22;6281;49.038;8.372;2024-01-07T10:39:23;5.80;99.90
12434;DHT22;6281;49.038;8.372;2024-01-07T10:41:52;5.50;99.90
12434;DHT22;6281;49.038;8.372;2024-01-07T10:44:23;5.70;99.90
12434;DHT22;6281;49.038;8.372;2024-01-07T10:46:50;5.60;99.90
12434;DHT22;6281;49.038;8.372;2024-01-07T10:49:20;5.40;99.90
12434;DHT22;6281;49.038;8.372;2024-01-07T10:51:55;5.30;99.90
12434;DHT22;6281;49.038;8.372;2024-01-07T10:54:24;5.40;99.90
12434;DHT22;6281;49.038;8.372;2024-01-07T10:56:58;5.60;99.90
12434;DHT22;6281;49.038;8.372;2024-01-07T10:59:26;5.50;99.90
12434;DHT22;6281;49.038;8.372;2024-01-07T11:01:53;5.40;99.90
12434;DHT22;6281;49.038;8.372;2024-01-07T11:04:23;5.50;99.90
12434;DHT22;6281;49.038;8.372;2024-01-07T11:06:59;5.30;99.90
12434;DHT22;6281;49.038;8.372;2024-01-07T11:09:33;5.30;99.90
12434;DHT22;6281;49.038;8.372;2024-01-07T11:12:03;5.60;99.90
12434;DHT22;6281;49.038;8.372;2024-01-07T11:14:34;5.50;99.90
12434;DHT22;6281;49.038;8.372;2024-01-07T11:17:02;5.50;99.90
12434;DHT22;6281;49.038;8.372;2024-01-07T11:19:29;5.40;99.90
12434;DHT22;6281;49.038;8.372;2024-01-07T11:22:23;5.30;99.90
12434;DHT22;6281;49.038;8.372;2024-01-07T11:24:53;5.40;99.90
12434;DHT22;6281;49.038;8.372;2024-01-07T11:27:23;5.30;99.90
12434;DHT22;6281;49.038;8.372;2024-01-07T11:29:54;5.00;99.90
12434;DHT22;6281;49.038;8.372;2024-01-07T11:32:22;4.90;99.90
12434;DHT22;6281;49.038;8.372;2024-01-07T11:34:51;5.00;99.90
12434;DHT22;6281;49.038;8.372;2024-01-07T11:37:19;4.90;99.90
12434;DHT22;6281;49.038;8.372;2024-01-07T11:39:47;4.90;99.90
12434;DHT22;6281;49.038;8.372;2024-01-07T11:42:15;4.90;99.90
12434;DHT22;6281;49.038;8.372;2024-01-07T11:44:47;4.90;99.90
12434;DHT22;6281;49.038;8.372;2024-01-07T11:47:15;4.90;99.90
12434;DHT22;6281;49.038;8.372;2024-01-07T11:49:42;5.00;99.90
12434;DHT22;6281;49.038;8.372;2024-01-07T11:52:10;5.00;99.90
12434;DHT22;6281;49.038;8.372;2024-01-07T11:54:37;5.10;99.90
12434;DHT22;6281;49.038;8.372;2024-01-07T11:57:04;5.10;99.90
12434;DHT22;6281;49.038;8.372;2024-01-07T11:59:31;5.20;99.90
12434;DHT22;6281;49.038;8.372;2024-01-07T12:02:00;5.30;99.90
12434;DHT22;6281;49.038;8.372;2024-01-07T12:04:29;5.20;99.90
12434;DHT22;6281;49.038;8.372;2024-01-07T12:06:56;5.20;99.90
12434;DHT22;6281;49.038;8.372;2024-01-07T12:09:23;5.20;99.90
12434;DHT22;6281;49.038;8.372;2024-01-07T12:11:50;5.40;99.90
12434;DHT22;6281;49.038;8.372;2024-01-07T12:14:18;5.40;99.90
12434;DHT22;6281;49.038;8.372;2024-01-07T12:16:45;5.40;99.90
12434;DHT22;6281;49.038;8.372;2024-01-07T12:19:13;5.40;99.90
12434;DHT22;6281;49.038;8.372;2024-01-07T12:21:40;4.80;99.90
12434;DHT22;6281;49.038;8.372;2024-01-07T12:24:07;5.00;99.90
12434;DHT22;6281;49.038;8.372;2024-01-07T12:26:34;4.80;99.90
12434;DHT22;6281;49.038;8.372;2024-01-07T12:29:02;4.90;99.90
12434;DHT22;6281;49.038;8.372;2024-01-07T12:31:30;5.20;99.90
12434;DHT22;6281;49.038;8.372;2024-01-07T12:33:57;5.00;99.90
12434;DHT22;6281;49.038;8.372;2024-01-07T12:36:26;5.10;99.90
12434;DHT22;6281;49.038;8.372;2024-01-07T12:38:53;5.00;99.90
12434;DHT22;6281;49.038;8.372;2024-01-07T12:41:20;4.90;99.90
12434;DHT22;6281;49.038;8.372;2024-01-07T12:43:47;5.10;99.90
12434;DHT22;6281;49.038;8.372;2024-01-07T12:46:14;4.70;99.90
12434;DHT22;6281;49.038;8.372;2024-01-07T12:48:41;4.80;99.90
12434;DHT22;6281;49.038;8.372;2024-01-07T12:51:08;4.90;99.90
12434;DHT22;6281;49.038;8.372;2024-01-07T12:53:37;4.70;99.90
12434;DHT22;6281;49.038;8.372;2024-01-07T12:56:04;4.70;99.90
12434;DHT22;6281;49.038;8.372;2024-01-07T12:58:31;4.80;99.90
12434;DHT22;6281;49.038;8.372;2024-01-07T13:00:58;4.70;99.90
12434;DHT22;6281;49.038;8.372;2024-01-07T13:03:25;4.70;99.90
12434;DHT22;6281;49.038;8.372;2024-01-07T13:05:52;4.40;99.90
12434;DHT22;6281;49.038;8.372;2024-01-07T13:08:20;4.60;99.90
12434;DHT22;6281;49.038;8.372;2024-01-07T13:10:49;4.60;99.90
12434;DHT22;6281;49.038;8.372;2024-01-07T13:13:16;4.70;99.90
12434;DHT22;6281;49.038;8.372;2024-01-07T13:15:43;4.70;99.90
12434;DHT22;6281;49.038;8.372;2024-01-07T13:18:11;4.30;99.90
12434;DHT22;6281;49.038;8.372;2024-01-07T13:20:38;4.30;99.90
12434;DHT22;6281;49.038;8.372;2024-01-07T13:23:06;4.20;99.90
12434;DHT22;6281;49.038;8.372;2024-01-07T13:25:33;4.40;99.90
12434;DHT22;6281;49.038;8.372;2024-01-07T13:28:01;4.10;99.90
12434;DHT22;6281;49.038;8.372;2024-01-07T13:30:28;4.10;99.90
12434;DHT22;6281;49.038;8.372;2024-01-07T13:32:55;4.30;99.90
12434;DHT22;6281;49.038;8.372;2024-01-07T13:35:23;4.10;99.90
12434;DHT22;6281;49.038;8.372;2024-01-07T13:37:50;4.20;99.90
12434;DHT22;6281;49.038;8.372;2024-01-07T13:40:18;3.90;99.90
12434;DHT22;6281;49.038;8.372;2024-01-07T13:42:45;4.10;99.90
12434;DHT22;6281;49.038;8.372;2024-01-07T13:45:18;4.10;99.90
12434;DHT22;6281;49.038;8.372;2024-01-07T13:47:46;4.50;99.90
12434;DHT22;6281;49.038;8.372;2024-01-07T13:50:13;4.50;99.90
12434;DHT22;6281;49.038;8.372;2024-01-07T13:52:40;4.70;99.90
12434;DHT22;6281;49.038;8.372;2024-01-07T13:55:08;4.60;99.90
12434;DHT22;6281;49.038;8.372;2024-01-07T13:57:36;4.50;99.90
12434;DHT22;6281;49.038;8.372;2024-01-07T14:00:03;4.40;99.90
12434;DHT22;6281;49.038;8.372;2024-01-07T14:02:36;4.20;99.90
12434;DHT22;6281;49.038;8.372;2024-01-07T14:05:05;4.40;99.90
12434;DHT22;6281;49.038;8.372;2024-01-07T14:07:34;3.90;99.90
12434;DHT22;6281;49.038;8.372;2024-01-07T14:10:01;4.70;99.90
12434;DHT22;6281;49.038;8.372;2024-01-07T14:12:30;4.20;99.90
12434;DHT22;6281;49.038;8.372;2024-01-07T14:14:57;4.10;99.90
12434;DHT22;6281;49.038;8.372;2024-01-07T14:17:24;4.30;99.90
12434;DHT22;6281;49.038;8.372;2024-01-07T14:19:53;4.70;99.90
12434;DHT22;6281;49.038;8.372;2024-01-07T14:22:20;4.40;99.90
12434;DHT22;6281;49.038;8.372;2024-01-07T14:24:47;4.50;99.90
12434;DHT22;6281;49.038;8.372;2024-01-07T14:27:14;4.50;99.90
12434;DHT22;6281;49.038;8.372;2024-01-07T14:29:42;4.50;99.90
12434;DHT22;6281;49.038;8.372;2024-01-07T14:32:09;4.90;99.90
12434;DHT22;6281;49.038;8.372;2024-01-07T14:34:38;4.70;99.90
12434;DHT22;6281;49.038;8.372;2024-01-07T14:37:08;4.10;99.90
12434;DHT22;6281;49.038;8.372;2024-01-07T14:39:36;4.20;99.90
12434;DHT22;6281;49.038;8.372;2024-01-07T14:42:03;4.00;99.90
12434;DHT22;6281;49.038;8.372;2024-01-07T14:44:31;4.00;99.90
12434;DHT22;6281;49.038;8.372;2024-01-07T14:46:57;3.60;99.90
12434;DHT22;6281;49.038;8.372;2024-01-07T14:49:24;3.60;99.90
12434;DHT22;6281;49.038;8.372;2024-01-07T14:51:51;3.60;99.90
12434;DHT22;6281;49.038;8.372;2024-01-07T14:54:20;3.60;99.90
12434;DHT22;6281;49.038;8.372;2024-01-07T14:56:47;3.70;99.90
12434;DHT22;6281;49.038;8.372;2024-01-07T14:59:14;3.70;99.90
12434;DHT22;6281;49.038;8.372;2024-01-07T15:01:41;3.50;99.90
12434;DHT22;6281;49.038;8.372;2024-01-07T15:04:09;3.50;99.90
12434;DHT22;6281;49.038;8.372;2024-01-07T15:06:40;3.70;99.90
12434;DHT22;6281;49.038;8.372;2024-01-07T15:09:07;3.50;99.90
12434;DHT22;6281;49.038;8.372;2024-01-07T15:11:36;3.30;99.90
12434;DHT22;6281;49.038;8.372;2024-01-07T15:14:04;3.50;99.90
12434;DHT22;6281;49.038;8.372;2024-01-07T15:16:34;3.50;99.90
12434;DHT22;6281;49.038;8.372;2024-01-07T15:19:02;3.60;99.90
12434;DHT22;6281;49.038;8.372;2024-01-07T15:21:29;3.00;99.90
12434;DHT22;6281;49.038;8.372;2024-01-07T15:23:56;3.00;99.90
12434;DHT22;6281;49.038;8.372;2024-01-07T15:26:23;3.00;99.90
12434;DHT22;6281;49.038;8.372;2024-01-07T15:28:51;2.90;99.90
12434;DHT22;6281;49.038;8.372;2024-01-07T15:31:18;3.40;99.90
12434;DHT22;6281;49.038;8.372;2024-01-07T15:33:45;3.20;99.90
12434;DHT22;6281;49.038;8.372;2024-01-07T15:36:12;3.20;99.90
12434;DHT22;6281;49.038;8.372;2024-01-07T15:38:39;3.20;99.90
12434;DHT22;6281;49.038;8.372;2024-01-07T15:41:06;3.20;99.90
12434;DHT22;6281;49.038;8.372;2024-01-07T15:43:34;3.30;99.90
12434;DHT22;6281;49.038;8.372;2024-01-07T15:46:04;3.30;99.90
12434;DHT22;6281;49.038;8.372;2024-01-07T15:48:31;3.20;99.90
12434;DHT22;6281;49.038;8.372;2024-01-07T15:50:58;3.20;99.90
12434;DHT22;6281;49.038;8.372;2024-01-07T15:53:25;3.30;99.90
12434;DHT22;6281;49.038;8.372;2024-01-07T15:55:59;3.30;99.90
12434;DHT22;6281;49.038;8.372;2024-01-07T15:58:26;3.10;99.90
12434;DHT22;6281;49.038;8.372;2024-01-07T16:00:56;3.20;99.90
12434;DHT22;6281;49.038;8.372;2024-01-07T16:03:25;3.20;99.90